TimeEEST,TemperatureF,Dew PointF,Humidity,Sea Level PressureIn,VisibilityMPH,Wind Direction,Wind SpeedMPH,Gust SpeedMPH,PrecipitationIn,Events,Conditions,WindDirDegrees,DateUTC
12:20 AM,73.4,48.2,41,29.89,-9999.0,NE,3.5,-,N/A,,Clear,40,2013-06-10 21:20:00
12:50 AM,73.4,48.2,41,29.89,-9999.0,Variable,3.5,-,N/A,,Clear,0,2013-06-10 21:50:00
1:20 AM,73.4,48.2,41,29.89,-9999.0,Variable,4.6,-,N/A,,Clear,0,2013-06-10 22:20:00
1:50 AM,69.8,50.0,49,29.89,-9999.0,Calm,Calm,-,N/A,,Clear,0,2013-06-10 22:50:00
2:20 AM,68.0,50.0,52,29.89,-9999.0,Calm,Calm,-,N/A,,Clear,0,2013-06-10 23:20:00
2:50 AM,69.8,50.0,49,29.89,-9999.0,East,2.3,-,N/A,,Clear,90,2013-06-10 23:50:00
3:00 AM,71,49,35,29.90,6,East,2.3,,,,,90,2013-06-11 00:00:00
3:20 AM,68.0,50.0,52,29.89,-9999.0,Variable,1.2,-,N/A,,Clear,0,2013-06-11 00:20:00
3:50 AM,66.2,50.0,56,29.89,-9999.0,NW,1.2,-,N/A,,Clear,310,2013-06-11 00:50:00
4:20 AM,68.0,51.8,56,29.89,-9999.0,NW,1.2,-,N/A,,Clear,320,2013-06-11 01:20:00
4:50 AM,68.0,51.8,56,29.89,-9999.0,WSW,1.2,-,N/A,,Clear,240,2013-06-11 01:50:00
5:20 AM,66.2,51.8,60,29.89,-9999.0,Calm,Calm,-,N/A,,Clear,0,2013-06-11 02:20:00
5:50 AM,66.2,53.6,64,29.89,-9999.0,ESE,2.3,-,N/A,,Clear,120,2013-06-11 02:50:00
6:20 AM,68.0,57.2,68,29.89,-9999.0,East,3.5,-,N/A,,Clear,100,2013-06-11 03:20:00
6:50 AM,69.8,55.4,60,29.86,-9999.0,ESE,4.6,-,N/A,,Clear,110,2013-06-11 03:50:00
7:20 AM,69.8,57.2,64,29.86,-9999.0,ESE,6.9,-,N/A,,Clear,110,2013-06-11 04:20:00
7:50 AM,69.8,55.4,60,29.86,-9999.0,East,6.9,-,N/A,,Clear,90,2013-06-11 04:50:00
8:20 AM,71.6,57.2,60,29.86,-9999.0,ESE,6.9,-,N/A,,Clear,120,2013-06-11 05:20:00
8:50 AM,71.6,59.0,64,29.86,-9999.0,ESE,8.1,-,N/A,,Clear,120,2013-06-11 05:50:00
9:00 AM,72,58,52,29.86,6,ESE,8.1,,,,Clear,120,2013-06-11 06:00:00
9:20 AM,73.4,57.2,57,29.86,-9999.0,ESE,6.9,-,N/A,,Clear,120,2013-06-11 06:20:00
9:50 AM,73.4,57.2,57,29.83,-9999.0,SE,6.9,-,N/A,,Clear,130,2013-06-11 06:50:00
10:20 AM,75.2,57.2,53,29.83,-9999.0,SSE,3.5,-,N/A,,Clear,150,2013-06-11 07:20:00
10:50 AM,77.0,57.2,50,29.83,-9999.0,South,4.6,-,N/A,,Clear,190,2013-06-11 07:50:00
11:20 AM,80.6,55.4,42,29.83,-9999.0,SSE,4.6,-,N/A,,Clear,160,2013-06-11 08:20:00
11:50 AM,82.4,46.4,28,29.83,-9999.0,SSE,5.8,-,N/A,,Clear,160,2013-06-11 08:50:00
12:20 PM,86.0,44.6,23,29.83,-9999.0,Variable,4.6,-,N/A,,Clear,0,2013-06-11 09:20:00
12:50 PM,82.4,44.6,26,29.83,-9999.0,South,8.1,-,N/A,,Clear,170,2013-06-11 09:50:00
1:20 PM,84.2,42.8,23,29.80,-9999.0,SSE,8.1,-,N/A,,Clear,160,2013-06-11 10:20:00
1:50 PM,82.4,41.0,23,29.80,-9999.0,South,6.9,-,N/A,,Clear,180,2013-06-11 10:50:00
2:20 PM,82.4,50.0,32,29.80,-9999.0,South,5.8,-,N/A,,Clear,180,2013-06-11 11:20:00
2:50 PM,86.0,50.0,29,29.80,-9999.0,SW,5.8,-,N/A,,Clear,230,2013-06-11 11:50:00
3:00 PM,85,49,19,29.79,6,SW,5.8,,,,Clear,230,2013-06-11 12:00:00
3:20 PM,86.0,46.4,25,29.77,-9999.0,South,5.8,-,N/A,,Clear,170,2013-06-11 12:20:00
3:50 PM,87.8,44.6,22,29.77,-9999.0,ESE,9.2,-,N/A,,Clear,110,2013-06-11 12:50:00
4:20 PM,87.8,41.0,19,29.77,-9999.0,NE,8.1,-,N/A,,Clear,40,2013-06-11 13:20:00
4:50 PM,87.8,41.0,19,29.77,-9999.0,NE,10.4,-,N/A,,Clear,40,2013-06-11 13:50:00
5:20 PM,87.8,39.2,18,29.74,-9999.0,NNE,11.5,-,N/A,,Clear,30,2013-06-11 14:20:00
5:50 PM,86.0,37.4,18,29.74,-9999.0,NNE,13.8,-,N/A,,Clear,30,2013-06-11 14:50:00
6:20 PM,84.2,37.4,19,29.74,-9999.0,NE,12.7,-,N/A,,Clear,40,2013-06-11 15:20:00
6:50 PM,84.2,37.4,19,29.71,-9999.0,NE,13.8,-,N/A,,Clear,40,2013-06-11 15:50:00
7:20 PM,82.4,41.0,23,29.71,-9999.0,NE,13.8,-,N/A,,Clear,40,2013-06-11 16:20:00
7:50 PM,80.6,44.6,28,29.71,-9999.0,NE,11.5,-,N/A,,Clear,50,2013-06-11 16:50:00
8:20 PM,78.8,44.6,30,29.71,-9999.0,ENE,12.7,-,N/A,,Clear,60,2013-06-11 17:20:00
8:50 PM,77.0,44.6,32,29.71,-9999.0,ENE,12.7,-,N/A,,Clear,60,2013-06-11 17:50:00
9:00 PM,77,44,20,29.73,6,ENE,12.7,,,,,60,2013-06-11 18:00:00
9:20 PM,77.0,44.6,32,29.71,-9999.0,NE,12.7,-,N/A,,Clear,50,2013-06-11 18:20:00
9:50 PM,75.2,46.4,36,29.71,-9999.0,East,9.2,-,N/A,,Clear,80,2013-06-11 18:50:00
10:20 PM,75.2,46.4,36,29.74,-9999.0,ENE,8.1,-,N/A,,Clear,70,2013-06-11 19:20:00
10:50 PM,75.2,46.4,36,29.74,-9999.0,NE,9.2,-,N/A,,Clear,50,2013-06-11 19:50:00
11:20 PM,75.2,48.2,38,29.71,-9999.0,NE,6.9,-,N/A,,Clear,50,2013-06-11 20:20:00
11:50 PM,73.4,48.2,41,29.71,-9999.0,NE,8.1,-,N/A,,Clear,40,2013-06-11 20:50:00